sensor_id;sensor_type;location;lat;lon;timestamp;P1;durP1;ratioP1;P2;durP2;ratioP2
7585;SDS011;12459;42.646;23.292;2023-05-10T00:11:03;11.67;;;11.07;;
7585;SDS011;12459;42.646;23.292;2023-05-10T00:26:05;10.87;;;10.27;;
7585;SDS011;12459;42.646;23.292;2023-05-10T00:41:06;10.53;;;9.93;;
7585;SDS011;12459;42.646;23.292;2023-05-10T00:56:09;12.60;;;11.90;;
7585;SDS011;12459;42.646;23.292;2023-05-10T01:11:10;13.53;;;12.83;;
7585;SDS011;12459;42.646;23.292;2023-05-10T01:56:55;10.57;;;9.97;;
7585;SDS011;12459;42.646;23.292;2023-05-10T02:12:01;11.23;;;10.63;;
7585;SDS011;12459;42.646;23.292;2023-05-10T02:27:05;11.53;;;10.93;;
7585;SDS011;12459;42.646;23.292;2023-05-10T02:42:13;11.53;;;10.93;;
7585;SDS011;12459;42.646;23.292;2023-05-10T02:57:22;12.80;;;12.10;;
7585;SDS011;12459;42.646;23.292;2023-05-10T03:27:43;10.53;;;9.93;;
7585;SDS011;12459;42.646;23.292;2023-05-10T03:42:46;10.27;;;9.67;;
7585;SDS011;12459;42.646;23.292;2023-05-10T03:57:48;9.87;;;9.33;;
7585;SDS011;12459;42.646;23.292;2023-05-10T04:12:50;9.57;;;9.07;;
7585;SDS011;12459;42.646;23.292;2023-05-10T04:27:52;8.93;;;8.43;;
7585;SDS011;12459;42.646;23.292;2023-05-10T04:42:54;9.77;;;9.27;;
7585;SDS011;12459;42.646;23.292;2023-05-10T04:57:56;9.77;;;9.27;;
7585;SDS011;12459;42.646;23.292;2023-05-10T05:12:58;9.13;;;8.63;;
7585;SDS011;12459;42.646;23.292;2023-05-10T05:28:00;10.53;;;9.93;;
7585;SDS011;12459;42.646;23.292;2023-05-10T05:43:02;8.93;;;8.43;;
7585;SDS011;12459;42.646;23.292;2023-05-10T05:58:04;9.50;;;9.00;;
7585;SDS011;12459;42.646;23.292;2023-05-10T06:13:06;9.10;;;8.60;;
7585;SDS011;12459;42.646;23.292;2023-05-10T06:28:08;9.73;;;9.23;;
7585;SDS011;12459;42.646;23.292;2023-05-10T06:43:09;11.27;;;10.67;;
7585;SDS011;12459;42.646;23.292;2023-05-10T06:58:11;10.37;;;9.77;;
7585;SDS011;12459;42.646;23.292;2023-05-10T07:13:13;11.77;;;11.17;;
7585;SDS011;12459;42.646;23.292;2023-05-10T07:28:15;9.73;;;9.23;;
7585;SDS011;12459;42.646;23.292;2023-05-10T07:43:20;10.80;;;10.20;;
7585;SDS011;12459;42.646;23.292;2023-05-10T07:58:21;10.80;;;10.20;;
7585;SDS011;12459;42.646;23.292;2023-05-10T08:13:23;10.13;;;9.53;;
7585;SDS011;12459;42.646;23.292;2023-05-10T08:28:25;13.23;;;12.53;;
7585;SDS011;12459;42.646;23.292;2023-05-10T08:43:27;11.03;;;10.43;;
7585;SDS011;12459;42.646;23.292;2023-05-10T08:58:32;10.67;;;10.07;;
7585;SDS011;12459;42.646;23.292;2023-05-10T09:13:35;11.87;;;11.27;;
7585;SDS011;12459;42.646;23.292;2023-05-10T09:44:11;11.73;;;11.13;;
7585;SDS011;12459;42.646;23.292;2023-05-10T09:59:13;11.90;;;11.30;;
7585;SDS011;12459;42.646;23.292;2023-05-10T10:14:17;13.00;;;12.30;;
7585;SDS011;12459;42.646;23.292;2023-05-10T10:44:35;12.70;;;12.00;;
7585;SDS011;12459;42.646;23.292;2023-05-10T10:59:42;13.87;;;13.17;;
7585;SDS011;12459;42.646;23.292;2023-05-10T11:14:50;11.10;;;10.50;;
7585;SDS011;12459;42.646;23.292;2023-05-10T11:29:52;13.07;;;12.37;;
7585;SDS011;12459;42.646;23.292;2023-05-10T11:44:54;12.57;;;11.87;;
7585;SDS011;12459;42.646;23.292;2023-05-10T11:59:56;13.50;;;12.80;;
7585;SDS011;12459;42.646;23.292;2023-05-10T12:14:58;12.50;;;11.83;;
7585;SDS011;12459;42.646;23.292;2023-05-10T12:30:00;13.53;;;12.83;;
7585;SDS011;12459;42.646;23.292;2023-05-10T13:00:06;14.13;;;13.43;;
7585;SDS011;12459;42.646;23.292;2023-05-10T13:15:08;14.90;;;14.10;;
7585;SDS011;12459;42.646;23.292;2023-05-10T13:30:10;12.83;;;12.13;;
7585;SDS011;12459;42.646;23.292;2023-05-10T13:45:12;14.47;;;13.73;;
7585;SDS011;12459;42.646;23.292;2023-05-10T14:00:14;12.53;;;11.83;;
7585;SDS011;12459;42.646;23.292;2023-05-10T14:15:17;14.93;;;14.17;;
7585;SDS011;12459;42.646;23.292;2023-05-10T14:30:19;15.57;;;14.77;;
7585;SDS011;12459;42.646;23.292;2023-05-10T14:45:22;13.93;;;13.23;;
7585;SDS011;12459;42.646;23.292;2023-05-10T15:00:24;12.87;;;12.17;;
7585;SDS011;12459;42.646;23.292;2023-05-10T15:15:26;11.50;;;10.90;;
7585;SDS011;12459;42.646;23.292;2023-05-10T15:30:28;15.33;;;14.53;;
7585;SDS011;12459;42.646;23.292;2023-05-10T15:45:30;14.03;;;13.33;;
7585;SDS011;12459;42.646;23.292;2023-05-10T16:00:32;11.80;;;11.20;;
7585;SDS011;12459;42.646;23.292;2023-05-10T16:15:34;13.37;;;12.67;;
7585;SDS011;12459;42.646;23.292;2023-05-10T16:30:36;14.37;;;13.67;;
7585;SDS011;12459;42.646;23.292;2023-05-10T16:45:38;13.77;;;13.07;;
7585;SDS011;12459;42.646;23.292;2023-05-10T17:00:40;13.90;;;13.20;;
7585;SDS011;12459;42.646;23.292;2023-05-10T17:15:41;13.63;;;12.93;;
7585;SDS011;12459;42.646;23.292;2023-05-10T17:30:46;11.30;;;10.70;;
7585;SDS011;12459;42.646;23.292;2023-05-10T17:45:48;11.77;;;11.17;;
7585;SDS011;12459;42.646;23.292;2023-05-10T18:00:53;14.50;;;13.77;;
7585;SDS011;12459;42.646;23.292;2023-05-10T18:15:57;13.67;;;12.97;;
7585;SDS011;12459;42.646;23.292;2023-05-10T18:30:59;13.60;;;12.90;;
7585;SDS011;12459;42.646;23.292;2023-05-10T18:46:01;14.40;;;13.70;;
7585;SDS011;12459;42.646;23.292;2023-05-10T19:01:03;14.53;;;13.80;;
7585;SDS011;12459;42.646;23.292;2023-05-10T19:16:05;12.97;;;12.27;;
7585;SDS011;12459;42.646;23.292;2023-05-10T19:31:13;15.10;;;14.30;;
7585;SDS011;12459;42.646;23.292;2023-05-10T19:46:15;15.00;;;14.20;;
7585;SDS011;12459;42.646;23.292;2023-05-10T20:01:20;14.27;;;13.57;;
7585;SDS011;12459;42.646;23.292;2023-05-10T20:16:22;15.03;;;14.27;;
7585;SDS011;12459;42.646;23.292;2023-05-10T20:31:26;14.97;;;14.17;;
7585;SDS011;12459;42.646;23.292;2023-05-10T20:46:29;16.50;;;15.70;;
7585;SDS011;12459;42.646;23.292;2023-05-10T21:01:31;13.53;;;12.83;;
7585;SDS011;12459;42.646;23.292;2023-05-10T21:16:33;14.97;;;14.17;;
7585;SDS011;12459;42.646;23.292;2023-05-10T21:31:35;16.23;;;15.43;;
7585;SDS011;12459;42.646;23.292;2023-05-10T21:46:37;13.97;;;13.27;;
7585;SDS011;12459;42.646;23.292;2023-05-10T22:01:38;14.17;;;13.47;;
7585;SDS011;12459;42.646;23.292;2023-05-10T22:16:40;13.60;;;12.90;;
7585;SDS011;12459;42.646;23.292;2023-05-10T22:31:42;13.37;;;12.67;;
7585;SDS011;12459;42.646;23.292;2023-05-10T22:46:44;14.80;;;14.00;;
7585;SDS011;12459;42.646;23.292;2023-05-10T23:01:46;13.07;;;12.37;;
7585;SDS011;12459;42.646;23.292;2023-05-10T23:16:49;13.70;;;13.00;;
7585;SDS011;12459;42.646;23.292;2023-05-10T23:31:51;14.00;;;13.30;;
7585;SDS011;12459;42.646;23.292;2023-05-10T23:46:52;13.40;;;12.70;;
